Latest Weather Observations for Robe Airport

IDS60801

Issued at 4:31 pm CDT Thursday 29 January 2015 (issued every 30 minutes, with the page automatically refreshed every 10 minutes)

About weather observations | Map of weather stations | Latest weather observations for SA | Other Formats
Station Details ID: 026105 Name: ROBE AIRFIELD Lat: -37.18 Lon: 139.81 Height: 3.0 m
Data from the previous 72 hours. | See also: Recent months at Robe Airport
Date/Time
CDT
Temp
°C
App
Temp
°C
Dew
Point
Rel
Hum
%
Delta-T
°C
Wind Press
QNH
hPa
Press
MSL
hPa
Rain
since 9 am
mm
Dir
 
Spd
km/h
Gust
km/h
Spd
kts
Gust
kts
29/04:30pm 20.9 15.2 13.1 61 4.4 S 35 52 19 28 1017.4 1017.4 0.0
29/04:00pm 20.8 14.3 12.8 60 4.5 SSE 39 54 21 29 1017.7 1017.7 0.0
29/03:30pm 21.8 15.7 12.9 57 5.1 S 37 50 20 27 1018.1 1018.1 0.0
29/03:00pm 22.4 16.8 13.2 56 5.3 SSE 35 50 19 27 1018.3 1018.3 0.0
29/02:30pm 22.7 17.4 13.2 55 5.5 S 33 46 18 25 1018.6 1018.6 0.0
29/02:00pm 22.4 17.3 13.2 56 5.3 S 32 44 17 24 1019.0 1019.0 0.0
29/01:30pm 22.5 17.2 12.4 52 5.7 S 32 44 17 24 1019.2 1019.2 0.0
29/01:00pm 23.0 18.4 13.5 55 5.5 S 30 43 16 23 1019.5 1019.5 0.0
29/12:30pm 22.5 18.0 12.7 54 5.6 S 28 39 15 21 1019.8 1019.8 0.0
29/12:00pm 23.3 19.6 9.3 41 7.5 SE 19 32 10 17 1020.1 1020.1 0.0
29/11:30am 22.6 18.5 10.1 45 6.8 SE 22 33 12 18 1020.5 1020.5 0.0
29/11:00am 21.9 17.6 10.7 49 6.1 SE 24 33 13 18 1020.7 1020.7 0.0
29/10:30am 20.9 16.8 10.1 50 5.8 SE 22 33 12 18 1020.8 1020.8 0.0
29/10:00am 20.1 15.6 10.2 53 5.3 ESE 24 33 13 18 1020.7 1020.7 0.0
29/09:30am 19.4 15.0 10.4 56 4.8 ESE 24 35 13 19 1021.0 1021.0 0.0
29/09:00am 17.8 13.2 11.1 65 3.6 ESE 26 33 14 18 1021.2 1021.2 0.0
29/08:30am 16.7 12.5 11.2 70 3.0 SE 24 35 13 19 1021.1 1021.1 0.0
29/08:00am 15.4 11.7 11.6 78 2.0 SE 22 30 12 16 1020.8 1020.8 0.0
29/07:30am 14.2 10.9 11.5 84 1.4 SE 20 30 11 16 1020.5 1020.5 0.0
29/07:00am 13.2 10.4 11.3 88 1.0 SE 17 22 9 12 1020.4 1020.4 0.0
29/06:30am 12.7 9.8 11.1 90 0.8 SE 17 22 9 12 1020.1 1020.1 0.0
29/06:00am 12.7 9.8 11.1 90 0.8 SE 17 20 9 11 1019.8 1019.8 0.0
29/05:30am 12.9 10.5 11.3 90 0.8 SE 15 20 8 11 1019.6 1019.6 0.0
29/05:00am 13.1 10.7 11.5 90 0.8 SE 15 26 8 14 1019.4 1019.4 0.0
29/04:30am 13.1 10.3 11.3 89 0.9 SE 17 24 9 13 1019.4 1019.4 0.0
29/04:00am 13.2 10.8 11.4 89 1.0 SE 15 24 8 13 1019.5 1019.5 0.0
29/03:30am 13.6 10.5 11.5 87 1.1 SE 19 26 10 14 1019.4 1019.4 0.0
29/03:00am 13.8 10.4 11.3 85 1.3 SE 20 28 11 15 1019.3 1019.3 0.0
29/02:30am 13.9 10.1 11.2 84 1.4 SE 22 32 12 17 1019.3 1019.3 0.0
29/02:00am 14.3 11.0 11.6 84 1.4 SE 20 32 11 17 1019.5 1019.5 0.0
29/01:30am 14.6 11.0 11.7 83 1.6 SE 22 32 12 17 1019.6 1019.6 0.0
29/01:00am 14.7 11.0 11.5 81 1.7 SE 22 32 12 17 1019.6 1019.6 0.0
29/12:30am 14.9 10.9 11.7 81 1.7 SE 24 33 13 18 1019.8 1019.8 0.0
29/12:00am 15.3 10.9 11.7 79 1.9 SE 26 35 14 19 1019.6 1019.6 0.0
 
Date/Time
CDT
Temp
°C
App
Temp
°C
Dew
Point
Rel
Hum
%
Delta-T
°C
Wind Press
QNH
hPa
Press
MSL
hPa
Rain
since 9 am
mm
Dir
 
Spd
km/h
Gust
km/h
Spd
kts
Gust
kts
28/11:30pm 15.6 11.3 12.0 79 2.0 SE 26 33 14 18 1019.5 1019.5 0.0
28/11:00pm 15.8 11.8 11.8 77 2.2 SE 24 35 13 19 1019.6 1019.6 0.0
28/10:30pm 16.1 11.8 12.1 77 2.2 SE 26 35 14 19 1019.3 1019.3 0.0
28/10:00pm 16.6 11.2 12.2 75 2.4 SSE 32 48 17 26 1019.4 1019.4 0.0
28/09:30pm 17.0 11.4 12.1 73 2.7 SSE 33 48 18 26 1018.9 1018.9 0.0
28/09:16pm 17.3 11.7 12.0 71 2.9 SSE 33 52 18 28 1018.8 1018.8 0.0
28/09:00pm 17.7 11.3 11.9 69 3.2 SSE 37 50 20 27 1018.5 1018.5 0.0
28/08:34pm 18.1 13.3 12.8 71 3.0 SSE 30 48 16 26 1018.2 1018.2 0.0
28/08:30pm 18.3 13.3 13.4 73 2.8 SSE 32 48 17 26 1018.1 1018.1 0.0
28/08:00pm 18.6 13.6 13.5 72 2.9 SSE 32 52 17 28 1017.7 1017.7 0.0
28/07:57pm 18.6 14.0 13.5 72 2.9 SSE 30 52 16 28 1017.6 1017.6 0.0
28/07:30pm 19.3 14.5 13.9 71 3.1 SSE 32 48 17 26 1017.5 1017.5 0.0
28/07:15pm 19.5 15.0 13.9 70 3.2 SSE 30 48 16 26 1017.4 1017.4 0.0
28/07:00pm 19.9 15.1 14.0 69 3.4 SSE 32 48 17 26 1017.2 1017.2 0.0
28/06:32pm 19.9 14.5 13.8 68 3.5 SSE 35 54 19 29 1017.1 1017.1 0.0
28/06:30pm 19.9 14.1 14.0 69 3.4 SSE 37 54 20 29 1017.1 1017.1 0.0
28/06:02pm 20.5 15.2 14.2 67 3.7 S 35 54 19 29 1017.2 1017.2 0.0
28/06:00pm 20.7 15.1 14.4 67 3.7 SSE 37 54 20 29 1017.2 1017.2 0.0
28/05:31pm 20.6 14.8 14.0 66 3.8 SSE 37 57 20 31 1017.2 1017.2 0.0
28/05:30pm 20.4 14.5 13.6 65 3.9 SSE 37 54 20 29 1017.2 1017.2 0.0
28/05:00pm 20.6 14.0 13.6 64 4.0 SSE 41 57 22 31 1017.2 1017.2 0.0
28/04:42pm 20.5 14.2 13.5 64 4.0 SSE 39 59 21 32 1017.1 1017.1 0.0
28/04:30pm 21.0 14.4 13.7 63 4.2 SSE 41 57 22 31 1017.1 1017.1 0.0
28/04:00pm 20.9 13.9 13.8 64 4.1 SSE 43 56 23 30 1017.3 1017.3 0.0
28/03:30pm 21.0 13.7 13.4 62 4.4 S 44 57 24 31 1017.4 1017.4 0.0
28/03:00pm 20.7 13.5 13.2 62 4.3 SSE 43 57 23 31 1017.6 1017.6 0.0
28/02:51pm 21.2 15.1 13.1 60 4.6 SSE 37 57 20 31 1017.7 1017.7 0.0
28/02:30pm 21.1 14.6 12.8 59 4.7 SSE 39 56 21 30 1017.8 1017.8 0.0
28/02:00pm 21.3 15.0 12.2 56 5.1 SSE 37 57 20 31 1018.0 1018.0 0.0
28/01:30pm 22.2 16.2 12.2 53 5.6 SSE 35 46 19 25 1018.3 1018.3 0.0
28/01:00pm 22.0 15.8 11.4 51 5.9 SSE 35 52 19 28 1018.7 1018.7 0.0
28/12:30pm 21.4 15.2 11.4 53 5.5 SSE 35 52 19 28 1018.7 1018.7 0.0
28/12:21pm 21.0 15.4 11.6 55 5.2 SSE 32 52 17 28 1018.8 1018.8 0.0
28/12:00pm 20.7 14.3 10.8 53 5.4 SSE 35 48 19 26 1019.1 1019.1 0.0
28/11:30am 20.6 14.4 9.5 49 5.9 SSE 32 44 17 24 1019.4 1019.4 0.0
28/11:00am 19.7 13.9 9.6 52 5.4 SSE 30 46 16 25 1019.4 1019.4 0.0
28/10:30am 19.5 13.7 7.9 47 5.9 SE 28 39 15 21 1019.9 1019.9 0.0
28/10:00am 18.6 12.5 8.3 51 5.3 SSE 30 43 16 23 1020.0 1020.0 0.0
28/09:30am 18.0 12.2 8.0 52 5.1 SE 28 41 15 22 1020.1 1020.1 0.0
28/09:00am 17.1 10.9 7.7 54 4.7 SSE 30 39 16 21 1020.1 1020.1 0.0
28/08:30am 16.7 10.5 7.9 56 4.4 SE 30 48 16 26 1019.9 1019.9 0.0
28/08:22am 16.1 9.8 7.3 56 4.4 SE 30 48 16 26 1019.8 1019.8 0.0
28/08:00am 16.2 10.4 7.9 58 4.2 SE 28 44 15 24 1019.6 1019.6 0.0
28/07:51am 15.9 10.1 7.9 59 4.0 SE 28 46 15 25 1019.5 1019.5 0.0
28/07:30am 15.3 10.3 8.1 62 3.6 SSE 24 33 13 18 1019.3 1019.3 0.0
28/07:00am 14.5 10.2 8.0 65 3.2 SE 20 35 11 19 1018.9 1018.9 0.0
28/06:30am 13.2 9.6 8.5 73 2.3 SSE 17 26 9 14 1018.5 1018.5 0.0
28/06:00am 12.4 9.5 8.1 75 2.1 SE 13 17 7 9 1018.3 1018.3 0.0
28/05:30am 12.7 9.9 8.6 76 2.0 SE 13 19 7 10 1018.2 1018.2 0.0
28/05:00am 13.5 9.9 8.4 71 2.5 SE 17 32 9 17 1018.3 1018.3 0.0
28/04:30am 13.4 10.5 8.3 71 2.5 SE 13 19 7 10 1018.3 1018.3 0.0
28/04:00am 13.3 9.6 8.0 70 2.6 SSE 17 26 9 14 1018.5 1018.5 0.0
28/03:30am 13.1 9.8 8.2 72 2.4 SE 15 20 8 11 1018.6 1018.6 0.0
28/03:00am 13.3 10.6 9.0 75 2.2 SE 13 20 7 11 1018.9 1018.9 0.0
28/02:30am 13.4 10.7 9.1 75 2.2 SE 13 20 7 11 1019.0 1019.0 0.0
28/02:00am 13.1 10.8 9.0 76 2.1 SSE 11 19 6 10 1019.3 1019.3 0.0
28/01:30am 12.2 10.1 8.1 76 2.0 SSE 9 15 5 8 1019.8 1019.8 0.0
28/01:00am 12.8 10.4 8.5 75 2.1 SE 11 17 6 9 1019.9 1019.9 0.0
28/12:30am 13.2 10.0 8.5 73 2.3 SE 15 20 8 11 1020.0 1020.0 0.0
28/12:00am 13.5 10.0 8.8 73 2.4 SE 17 22 9 12 1020.0 1020.0 0.0
 
Date/Time
CDT
Temp
°C
App
Temp
°C
Dew
Point
Rel
Hum
%
Delta-T
°C
Wind Press
QNH
hPa
Press
MSL
hPa
Rain
since 9 am
mm
Dir
 
Spd
km/h
Gust
km/h
Spd
kts
Gust
kts
27/11:30pm 13.7 9.8 8.7 72 2.5 SE 19 28 10 15 1020.0 1020.0 0.0
27/11:00pm 14.2 10.1 8.6 69 2.8 SSE 20 32 11 17 1019.9 1019.9 0.0
27/10:30pm 14.7 9.4 8.4 66 3.2 SSE 26 41 14 22 1019.6 1019.6 0.0
27/10:00pm 14.6 10.8 9.0 69 2.8 SE 19 26 10 14 1019.7 1019.7 0.0
27/09:30pm 15.0 10.4 8.0 63 3.5 SSE 22 37 12 20 1019.6 1019.6 0.0
27/09:00pm 15.4 10.4 8.2 62 3.6 SSE 24 39 13 21 1019.3 1019.3 0.0
27/08:30pm 15.9 10.2 8.4 61 3.8 SSE 28 44 15 24 1018.9 1018.9 0.0
27/08:00pm 16.1 9.8 9.1 63 3.6 SSE 32 43 17 23 1018.7 1018.7 0.0
27/07:30pm 16.3 10.8 9.3 63 3.6 SSE 28 37 15 20 1018.6 1018.6 0.0
27/07:00pm 16.9 11.0 9.1 60 4.0 SSE 30 43 16 23 1018.4 1018.4 0.0
27/06:30pm 17.4 11.0 9.3 59 4.2 SSE 33 44 18 24 1018.1 1018.1 0.0
27/06:00pm 17.8 11.6 9.4 58 4.4 SSE 32 48 17 26 1018.1 1018.1 0.0
27/05:30pm 18.1 10.7 8.4 53 5.0 SSE 37 48 20 26 1018.0 1018.0 0.0
27/05:00pm 18.7 11.8 8.7 52 5.2 S 35 50 19 27 1018.1 1018.1 0.0
27/04:30pm 18.6 11.1 9.4 55 4.8 S 39 54 21 29 1018.0 1018.0 0.0
27/04:00pm 18.5 11.4 9.6 56 4.7 S 37 52 20 28 1018.0 1018.0 0.0
27/03:30pm 18.6 11.1 9.4 55 4.8 S 39 50 21 27 1018.0 1018.0 0.0
27/03:00pm 19.3 12.3 8.6 50 5.6 S 35 50 19 27 1018.2 1018.2 0.0
27/02:30pm 19.0 12.1 8.9 52 5.3 S 35 46 19 25 1018.6 1018.6 0.0
27/02:00pm 18.3 11.6 8.3 52 5.1 S 33 43 18 23 1018.7 1018.7 0.0
27/01:30pm 18.3 12.7 8.8 54 4.9 SSE 28 41 15 22 1018.7 1018.7 0.0
27/01:00pm 18.8 13.3 9.3 54 5.0 S 28 39 15 21 1018.9 1018.9 0.0
27/12:30pm 19.4 14.6 8.7 50 5.6 S 24 33 13 18 1019.0 1019.0 0.0
27/12:00pm 17.3 11.5 7.9 54 4.7 S 28 41 15 22 1019.3 1019.3 0.0
27/11:30am 17.8 12.6 7.2 50 5.3 S 24 33 13 18 1019.4 1019.4 0.0
27/11:00am 18.1 13.3 7.2 49 5.5 S 22 35 12 19 1019.6 1019.6 0.0
27/10:30am 17.1 12.5 6.3 49 5.3 S 20 32 11 17 1019.7 1019.7 0.0
27/10:00am 17.1 12.6 6.3 49 5.3 S 19 30 10 16 1019.8 1019.8 0.0
27/09:30am 16.8 12.0 5.4 47 5.5 S 20 30 11 16 1019.9 1019.9 0.0
27/09:00am 16.1 12.5 6.8 54 4.6 SSE 15 22 8 12 1019.8 1019.8 0.0
27/08:30am 14.8 13.3 8.5 66 3.2 SSE 6 9 3 5 1019.8 1019.8 0.0
27/08:00am 12.5 12.7 10.4 87 1.1 CALM 0 0 0 0 1019.5 1019.5 0.0
27/07:30am 10.4 10.3 9.5 94 0.4 CALM 0 0 0 0 1019.2 1019.2 0.0
27/07:00am 8.7 8.2 7.8 94 0.4 CALM 0 0 0 0 1018.9 1018.9 0.0
27/06:30am 7.7 6.9 6.6 93 0.5 CALM 0 2 0 1 1018.6 1018.6 0.0
27/06:00am 6.9 5.9 5.8 93 0.5 CALM 0 0 0 0 1018.4 1018.4 0.0
27/05:30am 6.6 5.6 5.4 92 0.5 CALM 0 0 0 0 1018.2 1018.2 0.0
27/05:00am 6.3 4.8 4.9 91 0.6 ESE 2 2 1 1 1018.0 1018.0 0.0
27/04:30am 7.0 5.6 5.5 90 0.7 ESE 2 4 1 2 1018.0 1018.0 0.0
27/04:00am 6.8 5.3 5.0 88 0.8 ESE 2 4 1 2 1018.2 1018.2 0.0
27/03:30am 7.8 6.2 6.3 90 0.7 ESE 4 4 2 2 1018.3 1018.3 0.0
27/03:00am 7.0 5.9 5.2 88 0.8 CALM 0 0 0 0 1018.5 1018.5 0.0
27/02:30am 7.6 6.6 5.4 86 1.0 CALM 0 0 0 0 1018.6 1018.6 0.0
27/02:00am 8.9 7.7 6.3 84 1.2 ESE 2 2 1 1 1018.7 1018.7 0.0
27/01:30am 9.5 7.7 5.5 76 1.8 SE 4 7 2 4 1018.9 1018.9 0.0
27/01:00am 11.3 9.3 6.2 71 2.4 SSE 6 9 3 5 1019.0 1019.0 0.0
27/12:30am 12.3 9.6 7.2 71 2.5 SSE 11 15 6 8 1019.1 1019.1 0.0
27/12:00am 12.9 9.8 7.4 69 2.7 SSE 13 17 7 9 1019.1 1019.1 0.0
 
Date/Time
CDT
Temp
°C
App
Temp
°C
Dew
Point
Rel
Hum
%
Delta-T
°C
Wind Press
QNH
hPa
Press
MSL
hPa
Rain
since 9 am
mm
Dir
 
Spd
km/h
Gust
km/h
Spd
kts
Gust
kts
26/11:30pm 12.5 9.4 7.4 71 2.5 SSE 13 19 7 10 1019.2 1019.2 0.0
26/11:00pm 12.2 9.4 6.9 70 2.5 SSE 11 17 6 9 1019.3 1019.3 0.0
26/10:30pm 12.7 9.6 7.2 69 2.7 SSE 13 20 7 11 1019.5 1019.5 0.0
26/10:00pm 13.4 9.9 7.4 67 2.9 SSE 15 19 8 10 1019.5 1019.5 0.0
26/09:30pm 13.2 10.1 7.4 68 2.8 SSE 13 19 7 10 1019.5 1019.5 0.0
26/09:00pm 14.1 10.3 7.6 65 3.2 SSE 17 24 9 13 1019.3 1019.3 0.0
26/08:30pm 14.4 10.6 7.7 64 3.3 SSE 17 24 9 13 1019.1 1019.1 0.0
26/08:00pm 15.2 10.8 7.5 60 3.8 S 20 28 11 15 1018.9 1018.9 0.0
26/07:30pm 16.0 11.2 7.5 57 4.2 S 22 30 12 16 1018.6 1018.6 0.0
26/07:00pm 16.6 11.8 7.5 55 4.6 S 22 30 12 16 1018.4 1018.4 0.0
26/06:30pm 17.4 12.3 7.5 52 5.0 S 24 35 13 19 1018.2 1018.2 0.0
26/06:00pm 17.4 12.4 8.0 54 4.8 S 24 32 13 17 1017.9 1017.9 0.0
26/05:30pm 17.6 11.9 6.8 49 5.4 S 26 39 14 21 1017.7 1017.7 0.0
26/05:00pm 17.9 12.0 7.6 51 5.2 SSW 28 37 15 20 1017.8 1017.8 0.0

Other Formats:

Comma delimited format used in spreadsheet applications
http://www.bom.gov.au/fwo/IDS60801/IDS60801.95816.axf

JavaScript Object Notation format (JSON) in row-major order
http://www.bom.gov.au/fwo/IDS60801/IDS60801.95816.json